sensor_id;sensor_type;location;lat;lon;timestamp;pressure;altitude;pressure_sealevel;temperature;humidity
73338;BME280;61575;49.908;35.556;2023-04-01T00:01:39;98306.69;;;6.18;71.04
73338;BME280;61575;49.908;35.556;2023-04-01T00:04:42;98293.72;;;6.15;71.19
73338;BME280;61575;49.908;35.556;2023-04-01T00:07:46;98298.22;;;6.14;71.84
73338;BME280;61575;49.908;35.556;2023-04-01T00:10:51;98302.06;;;6.12;71.87
73338;BME280;61575;49.908;35.556;2023-04-01T00:13:53;98299.75;;;6.09;72.40
73338;BME280;61575;49.908;35.556;2023-04-01T00:16:55;98300.91;;;6.06;72.84
73338;BME280;61575;49.908;35.556;2023-04-01T00:19:59;98305.91;;;6.01;73.41
73338;BME280;61575;49.908;35.556;2023-04-01T00:23:03;98303.75;;;6.04;73.42
73338;BME280;61575;49.908;35.556;2023-04-01T00:26:05;98304.09;;;6.01;73.97
73338;BME280;61575;49.908;35.556;2023-04-01T00:29:06;98301.59;;;6.00;73.97
73338;BME280;61575;49.908;35.556;2023-04-01T00:32:09;98308.25;;;5.96;74.62
73338;BME280;61575;49.908;35.556;2023-04-01T00:35:12;98316.94;;;5.90;75.52
73338;BME280;61575;49.908;35.556;2023-04-01T00:38:14;98318.59;;;5.91;75.69
73338;BME280;61575;49.908;35.556;2023-04-01T00:41:19;98320.59;;;5.89;76.11
73338;BME280;61575;49.908;35.556;2023-04-01T00:44:29;98323.78;;;5.84;76.59
73338;BME280;61575;49.908;35.556;2023-04-01T00:47:31;98323.59;;;5.86;76.49
73338;BME280;61575;49.908;35.556;2023-04-01T00:50:34;98326.28;;;5.86;76.97
73338;BME280;61575;49.908;35.556;2023-04-01T00:53:40;98330.28;;;5.82;77.58
73338;BME280;61575;49.908;35.556;2023-04-01T00:56:50;98336.44;;;5.82;77.88
73338;BME280;61575;49.908;35.556;2023-04-01T00:59:57;98337.44;;;5.73;78.74
73338;BME280;61575;49.908;35.556;2023-04-01T01:03:01;98341.44;;;5.77;78.51
73338;BME280;61575;49.908;35.556;2023-04-01T01:06:21;98338.09;;;5.75;79.24
73338;BME280;61575;49.908;35.556;2023-04-01T01:09:41;98347.44;;;5.71;79.56
73338;BME280;61575;49.908;35.556;2023-04-01T01:12:54;98354.59;;;5.70;79.97
73338;BME280;61575;49.908;35.556;2023-04-01T01:16:13;98346.94;;;5.59;81.12
73338;BME280;61575;49.908;35.556;2023-04-01T01:19:48;98348.78;;;5.59;81.41
73338;BME280;61575;49.908;35.556;2023-04-01T01:36:35;98353.59;;;5.47;82.59
73338;BME280;61575;49.908;35.556;2023-04-01T01:39:44;98358.59;;;5.42;83.20
73338;BME280;61575;49.908;35.556;2023-04-01T01:42:56;98355.59;;;5.45;83.18
73338;BME280;61575;49.908;35.556;2023-04-01T01:46:03;98357.75;;;5.42;83.59
73338;BME280;61575;49.908;35.556;2023-04-01T01:49:07;98361.91;;;5.36;83.83
73338;BME280;61575;49.908;35.556;2023-04-01T01:52:13;98365.56;;;5.35;84.24
73338;BME280;61575;49.908;35.556;2023-04-01T01:55:33;98356.59;;;5.36;84.09
73338;BME280;61575;49.908;35.556;2023-04-01T01:58:47;98366.41;;;5.35;84.56
73338;BME280;61575;49.908;35.556;2023-04-01T02:01:53;98356.75;;;5.34;84.45
73338;BME280;61575;49.908;35.556;2023-04-01T02:05:05;98364.22;;;5.31;84.67
73338;BME280;61575;49.908;35.556;2023-04-01T02:08:21;98359.75;;;5.31;85.13
73338;BME280;61575;49.908;35.556;2023-04-01T02:11:30;98350.09;;;5.30;85.08
73338;BME280;61575;49.908;35.556;2023-04-01T02:14:46;98352.59;;;5.32;85.19
73338;BME280;61575;49.908;35.556;2023-04-01T02:17:49;98349.09;;;5.31;84.99
73338;BME280;61575;49.908;35.556;2023-04-01T02:20:53;98345.25;;;5.26;85.41
73338;BME280;61575;49.908;35.556;2023-04-01T02:24:00;98342.59;;;5.26;85.34
73338;BME280;61575;49.908;35.556;2023-04-01T02:27:03;98347.91;;;5.26;85.64
73338;BME280;61575;49.908;35.556;2023-04-01T02:30:11;98345.94;;;5.28;85.72
73338;BME280;61575;49.908;35.556;2023-04-01T02:33:13;98340.59;;;5.28;85.71
73338;BME280;61575;49.908;35.556;2023-04-01T02:36:18;98349.09;;;5.23;85.63
73338;BME280;61575;49.908;35.556;2023-04-01T02:39:23;98357.75;;;5.25;85.74
73338;BME280;61575;49.908;35.556;2023-04-01T02:42:27;98358.91;;;5.23;85.70
73338;BME280;61575;49.908;35.556;2023-04-01T02:45:29;98354.56;;;5.22;85.91
73338;BME280;61575;49.908;35.556;2023-04-01T02:48:31;98354.06;;;5.18;86.03
73338;BME280;61575;49.908;35.556;2023-04-01T02:51:36;98355.06;;;5.17;85.95
73338;BME280;61575;49.908;35.556;2023-04-01T02:54:40;98352.25;;;5.19;86.09
73338;BME280;61575;49.908;35.556;2023-04-01T02:57:42;98353.91;;;5.12;86.53
73338;BME280;61575;49.908;35.556;2023-04-01T03:00:49;98356.56;;;5.12;86.70
73338;BME280;61575;49.908;35.556;2023-04-01T03:03:51;98351.06;;;5.13;86.88
73338;BME280;61575;49.908;35.556;2023-04-01T03:06:52;98359.88;;;5.14;87.07
73338;BME280;61575;49.908;35.556;2023-04-01T03:09:54;98358.22;;;5.13;86.94
73338;BME280;61575;49.908;35.556;2023-04-01T03:12:56;98366.03;;;5.14;86.86
73338;BME280;61575;49.908;35.556;2023-04-01T03:16:01;98372.03;;;5.16;86.89
73338;BME280;61575;49.908;35.556;2023-04-01T03:19:02;98366.19;;;5.13;87.11
73338;BME280;61575;49.908;35.556;2023-04-01T03:22:05;98369.84;;;5.12;87.29
73338;BME280;61575;49.908;35.556;2023-04-01T03:25:08;98365.38;;;5.12;87.53
73338;BME280;61575;49.908;35.556;2023-04-01T03:28:12;98369.84;;;5.12;87.73
73338;BME280;61575;49.908;35.556;2023-04-01T03:31:14;98364.53;;;5.12;87.65
73338;BME280;61575;49.908;35.556;2023-04-01T03:34:25;98371.84;;;5.10;87.39
73338;BME280;61575;49.908;35.556;2023-04-01T03:37:30;98367.34;;;5.10;88.01
73338;BME280;61575;49.908;35.556;2023-04-01T03:40:32;98369.84;;;5.12;87.79
73338;BME280;61575;49.908;35.556;2023-04-01T03:43:35;98363.88;;;5.10;87.85
73338;BME280;61575;49.908;35.556;2023-04-01T03:46:44;98375.19;;;5.12;87.83
73338;BME280;61575;49.908;35.556;2023-04-01T03:49:49;98373.50;;;5.11;88.09
73338;BME280;61575;49.908;35.556;2023-04-01T03:52:52;98377.50;;;5.15;88.11
73338;BME280;61575;49.908;35.556;2023-04-01T03:55:54;98378.19;;;5.17;88.23
73338;BME280;61575;49.908;35.556;2023-04-01T03:59:03;98387.84;;;5.18;88.41
73338;BME280;61575;49.908;35.556;2023-04-01T04:02:06;98386.84;;;5.19;88.36
73338;BME280;61575;49.908;35.556;2023-04-01T04:05:11;98392.50;;;5.16;88.66
73338;BME280;61575;49.908;35.556;2023-04-01T04:08:15;98398.81;;;5.15;88.73
73338;BME280;61575;49.908;35.556;2023-04-01T04:11:18;98394.16;;;5.17;89.02
73338;BME280;61575;49.908;35.556;2023-04-01T04:14:23;98391.31;;;5.18;88.92
73338;BME280;61575;49.908;35.556;2023-04-01T04:17:25;98403.13;;;5.16;89.12
73338;BME280;61575;49.908;35.556;2023-04-01T04:20:29;98410.44;;;5.14;88.92
73338;BME280;61575;49.908;35.556;2023-04-01T04:23:31;98423.44;;;5.17;88.99
73338;BME280;61575;49.908;35.556;2023-04-01T04:26:35;98414.78;;;5.15;89.18
73338;BME280;61575;49.908;35.556;2023-04-01T04:29:37;98421.75;;;5.16;89.31
73338;BME280;61575;49.908;35.556;2023-04-01T04:32:39;98424.78;;;5.21;88.94
73338;BME280;61575;49.908;35.556;2023-04-01T04:35:45;98415.13;;;5.20;89.13
73338;BME280;61575;49.908;35.556;2023-04-01T04:38:48;98425.25;;;5.16;89.14
73338;BME280;61575;49.908;35.556;2023-04-01T04:41:50;98421.25;;;5.12;89.57
73338;BME280;61575;49.908;35.556;2023-04-01T04:44:52;98417.59;;;5.13;89.66
73338;BME280;61575;49.908;35.556;2023-04-01T04:47:54;98431.91;;;5.20;89.11
73338;BME280;61575;49.908;35.556;2023-04-01T04:50:56;98424.78;;;5.21;89.51
73338;BME280;61575;49.908;35.556;2023-04-01T04:53:58;98420.28;;;5.21;89.15
73338;BME280;61575;49.908;35.556;2023-04-01T04:57:14;98433.25;;;5.24;89.42
73338;BME280;61575;49.908;35.556;2023-04-01T05:00:26;98431.09;;;5.28;89.39
73338;BME280;61575;49.908;35.556;2023-04-01T05:03:33;98426.97;;;5.33;89.36
73338;BME280;61575;49.908;35.556;2023-04-01T05:06:35;98430.97;;;5.37;89.10
73338;BME280;61575;49.908;35.556;2023-04-01T05:09:40;98441.78;;;5.36;89.20
73338;BME280;61575;49.908;35.556;2023-04-01T05:12:43;98434.78;;;5.35;89.24
73338;BME280;61575;49.908;35.556;2023-04-01T05:15:49;98432.78;;;5.37;89.40
73338;BME280;61575;49.908;35.556;2023-04-01T05:18:51;98445.44;;;5.35;89.22
73338;BME280;61575;49.908;35.556;2023-04-01T05:21:56;98453.09;;;5.38;89.48
73338;BME280;61575;49.908;35.556;2023-04-01T05:24:58;98440.78;;;5.45;89.02
73338;BME280;61575;49.908;35.556;2023-04-01T05:28:03;98445.78;;;5.40;89.11
73338;BME280;61575;49.908;35.556;2023-04-01T05:31:06;98448.63;;;5.47;88.75
73338;BME280;61575;49.908;35.556;2023-04-01T05:34:13;98451.94;;;5.49;88.76
73338;BME280;61575;49.908;35.556;2023-04-01T05:37:17;98455.78;;;5.54;88.97
73338;BME280;61575;49.908;35.556;2023-04-01T05:40:21;98456.28;;;5.58;88.56
73338;BME280;61575;49.908;35.556;2023-04-01T05:43:23;98459.13;;;5.64;88.62
73338;BME280;61575;49.908;35.556;2023-04-01T05:46:28;98460.28;;;5.62;89.05
73338;BME280;61575;49.908;35.556;2023-04-01T05:49:53;98469.47;;;5.67;88.71
73338;BME280;61575;49.908;35.556;2023-04-01T05:52:57;98470.13;;;5.69;88.77
73338;BME280;61575;49.908;35.556;2023-04-01T05:56:03;98475.13;;;5.72;88.41
73338;BME280;61575;49.908;35.556;2023-04-01T05:59:12;98481.13;;;5.75;88.21
73338;BME280;61575;49.908;35.556;2023-04-01T06:02:17;98479.78;;;5.79;88.25
73338;BME280;61575;49.908;35.556;2023-04-01T06:05:24;98487.63;;;5.80;87.97
73338;BME280;61575;49.908;35.556;2023-04-01T06:08:30;98482.78;;;5.76;88.09
73338;BME280;61575;49.908;35.556;2023-04-01T06:11:55;98491.44;;;5.78;87.98
73338;BME280;61575;49.908;35.556;2023-04-01T06:38:41;98506.94;;;5.82;88.60
73338;BME280;61575;49.908;35.556;2023-04-01T06:42:43;98503.28;;;5.83;88.17
73338;BME280;61575;49.908;35.556;2023-04-01T06:55:47;98515.25;;;5.71;88.28
73338;BME280;61575;49.908;35.556;2023-04-01T06:59:21;98519.41;;;5.73;88.38
73338;BME280;61575;49.908;35.556;2023-04-01T07:02:50;98521.25;;;5.73;88.15
73338;BME280;61575;49.908;35.556;2023-04-01T07:06:00;98522.75;;;5.76;87.83
73338;BME280;61575;49.908;35.556;2023-04-01T07:09:08;98518.75;;;5.80;88.23
73338;BME280;61575;49.908;35.556;2023-04-01T07:16:24;98531.41;;;5.86;88.14
73338;BME280;61575;49.908;35.556;2023-04-01T07:22:47;98537.25;;;5.89;88.13
73338;BME280;61575;49.908;35.556;2023-04-01T07:29:49;98544.41;;;5.89;88.21
73338;BME280;61575;49.908;35.556;2023-04-01T07:33:14;98551.09;;;5.93;87.86
73338;BME280;61575;49.908;35.556;2023-04-01T07:36:38;98538.25;;;5.96;87.79
73338;BME280;61575;49.908;35.556;2023-04-01T08:00:24;98557.78;;;6.13;88.14
73338;BME280;61575;49.908;35.556;2023-04-01T08:07:21;98555.78;;;6.23;88.11
73338;BME280;61575;49.908;35.556;2023-04-01T08:10:52;98554.28;;;6.29;88.09
73338;BME280;61575;49.908;35.556;2023-04-01T08:21:17;98553.13;;;6.48;87.86
73338;BME280;61575;49.908;35.556;2023-04-01T08:24:36;98565.63;;;6.47;88.02
73338;BME280;61575;49.908;35.556;2023-04-01T08:34:58;98558.44;;;6.64;88.16
73338;BME280;61575;49.908;35.556;2023-04-01T08:52:42;98558.38;;;7.05;87.15
73338;BME280;61575;49.908;35.556;2023-04-01T08:59:37;98568.38;;;7.02;87.04
73338;BME280;61575;49.908;35.556;2023-04-01T09:16:27;98580.50;;;7.38;86.36
73338;BME280;61575;49.908;35.556;2023-04-01T09:19:57;98581.50;;;7.37;86.09
73338;BME280;61575;49.908;35.556;2023-04-01T09:33:41;98586.28;;;7.49;85.89
73338;BME280;61575;49.908;35.556;2023-04-01T09:41:12;98578.22;;;7.65;85.48
73338;BME280;61575;49.908;35.556;2023-04-01T09:44:37;98583.72;;;7.64;85.17
73338;BME280;61575;49.908;35.556;2023-04-01T09:54:48;98578.47;;;7.79;85.14
73338;BME280;61575;49.908;35.556;2023-04-01T09:58:19;98577.72;;;7.93;84.94
73338;BME280;61575;49.908;35.556;2023-04-01T10:05:41;98579.16;;;8.04;84.25
73338;BME280;61575;49.908;35.556;2023-04-01T10:20:08;98593.03;;;8.07;83.28
73338;BME280;61575;49.908;35.556;2023-04-01T10:27:19;98585.91;;;8.22;83.04
73338;BME280;61575;49.908;35.556;2023-04-01T11:00:05;98580.94;;;8.94;79.95
73338;BME280;61575;49.908;35.556;2023-04-01T11:03:55;98580.59;;;8.97;79.14
73338;BME280;61575;49.908;35.556;2023-04-01T11:20:37;98582.13;;;9.30;78.92
73338;BME280;61575;49.908;35.556;2023-04-01T11:30:28;98579.44;;;9.15;78.75
73338;BME280;61575;49.908;35.556;2023-04-01T11:40:43;98586.81;;;9.13;79.18
73338;BME280;61575;49.908;35.556;2023-04-01T11:44:17;98583.50;;;9.11;79.34
73338;BME280;61575;49.908;35.556;2023-04-01T11:54:47;98589.81;;;8.95;79.42
73338;BME280;61575;49.908;35.556;2023-04-01T12:12:10;98587.25;;;9.02;79.34
73338;BME280;61575;49.908;35.556;2023-04-01T12:29:49;98584.63;;;8.93;79.70
73338;BME280;61575;49.908;35.556;2023-04-01T12:40:02;98584.34;;;8.88;80.10
73338;BME280;61575;49.908;35.556;2023-04-01T12:53:26;98587.00;;;8.74;80.88
73338;BME280;61575;49.908;35.556;2023-04-01T12:56:49;98604.19;;;8.79;80.83
73338;BME280;61575;49.908;35.556;2023-04-01T13:16:57;98603.34;;;8.79;80.95
73338;BME280;61575;49.908;35.556;2023-04-01T13:30:33;98610.16;;;8.67;80.85
73338;BME280;61575;49.908;35.556;2023-04-01T13:37:34;98614.38;;;8.61;81.28
73338;BME280;61575;49.908;35.556;2023-04-01T13:40:52;98603.50;;;8.62;81.01
73338;BME280;61575;49.908;35.556;2023-04-01T14:23:51;98639.38;;;8.22;83.42
73338;BME280;61575;49.908;35.556;2023-04-01T14:37:25;98622.91;;;8.11;84.57
73338;BME280;61575;49.908;35.556;2023-04-01T14:50:46;98621.66;;;7.98;85.70
73338;BME280;61575;49.908;35.556;2023-04-01T14:57:14;98622.34;;;7.92;86.03
73338;BME280;61575;49.908;35.556;2023-04-01T15:00:20;98630.38;;;7.92;86.23
73338;BME280;61575;49.908;35.556;2023-04-01T15:03:27;98632.03;;;7.93;86.39
73338;BME280;61575;49.908;35.556;2023-04-01T15:20:01;98643.34;;;7.64;88.10
73338;BME280;61575;49.908;35.556;2023-04-01T15:33:38;98634.97;;;7.67;88.02
73338;BME280;61575;49.908;35.556;2023-04-01T15:37:13;98643.16;;;7.66;88.10
73338;BME280;61575;49.908;35.556;2023-04-01T15:40:30;98637.81;;;7.66;88.17
73338;BME280;61575;49.908;35.556;2023-04-01T15:43:43;98648.88;;;7.63;88.83
73338;BME280;61575;49.908;35.556;2023-04-01T15:46:51;98650.03;;;7.60;89.33
73338;BME280;61575;49.908;35.556;2023-04-01T16:00:41;98655.72;;;7.57;90.77
73338;BME280;61575;49.908;35.556;2023-04-01T16:04:19;98653.22;;;7.56;91.04
73338;BME280;61575;49.908;35.556;2023-04-01T16:18:04;98652.59;;;7.46;92.55
73338;BME280;61575;49.908;35.556;2023-04-01T16:21:21;98654.75;;;7.50;92.12
73338;BME280;61575;49.908;35.556;2023-04-01T16:24:39;98657.94;;;7.46;92.56
73338;BME280;61575;49.908;35.556;2023-04-01T16:28:15;98661.25;;;7.48;92.75
73338;BME280;61575;49.908;35.556;2023-04-01T16:31:32;98661.94;;;7.50;92.47
73338;BME280;61575;49.908;35.556;2023-04-01T16:35:04;98666.25;;;7.51;92.71
73338;BME280;61575;49.908;35.556;2023-04-01T16:41:34;98669.78;;;7.43;93.22
73338;BME280;61575;49.908;35.556;2023-04-01T16:44:56;98669.31;;;7.40;93.95
73338;BME280;61575;49.908;35.556;2023-04-01T16:48:11;98664.97;;;7.39;93.91
73338;BME280;61575;49.908;35.556;2023-04-01T16:51:16;98679.16;;;7.39;93.93
73338;BME280;61575;49.908;35.556;2023-04-01T16:54:40;98678.97;;;7.41;94.08
73338;BME280;61575;49.908;35.556;2023-04-01T16:57:52;98674.81;;;7.38;94.40
73338;BME280;61575;49.908;35.556;2023-04-01T17:01:36;98680.47;;;7.43;94.66
73338;BME280;61575;49.908;35.556;2023-04-01T17:08:29;98683.31;;;7.42;94.41
73338;BME280;61575;49.908;35.556;2023-04-01T17:23:01;98686.34;;;7.39;94.32
73338;BME280;61575;49.908;35.556;2023-04-01T17:36:39;98688.31;;;7.45;93.71
73338;BME280;61575;49.908;35.556;2023-04-01T17:55:48;98673.47;;;7.42;92.86
73338;BME280;61575;49.908;35.556;2023-04-01T17:59:17;98673.28;;;7.44;92.45
73338;BME280;61575;49.908;35.556;2023-04-01T18:02:45;98664.63;;;7.42;92.50
73338;BME280;61575;49.908;35.556;2023-04-01T18:09:30;98670.78;;;7.42;92.24
73338;BME280;61575;49.908;35.556;2023-04-01T18:12:53;98669.13;;;7.41;92.00
73338;BME280;61575;49.908;35.556;2023-04-01T18:16:17;98675.47;;;7.40;91.83
73338;BME280;61575;49.908;35.556;2023-04-01T18:22:57;98672.13;;;7.38;92.14
73338;BME280;61575;49.908;35.556;2023-04-01T18:26:20;98674.81;;;7.38;91.92
73338;BME280;61575;49.908;35.556;2023-04-01T18:30:00;98675.81;;;7.37;91.80
73338;BME280;61575;49.908;35.556;2023-04-01T18:33:29;98682.50;;;7.33;91.91
73338;BME280;61575;49.908;35.556;2023-04-01T18:36:56;98693.00;;;7.34;91.76
73338;BME280;61575;49.908;35.556;2023-04-01T18:40:13;98693.84;;;7.35;91.92
73338;BME280;61575;49.908;35.556;2023-04-01T18:51:12;98690.03;;;7.29;91.89
73338;BME280;61575;49.908;35.556;2023-04-01T18:53:45;98692.19;;;7.26;92.08
73338;BME280;61575;49.908;35.556;2023-04-01T18:57:00;98690.84;;;7.30;91.84
73338;BME280;61575;49.908;35.556;2023-04-01T19:00:14;98692.69;;;7.29;91.62
73338;BME280;61575;49.908;35.556;2023-04-01T19:03:31;98695.19;;;7.31;91.44
73338;BME280;61575;49.908;35.556;2023-04-01T19:06:52;98684.69;;;7.29;91.46
73338;BME280;61575;49.908;35.556;2023-04-01T19:10:00;98681.16;;;7.29;91.54
73338;BME280;61575;49.908;35.556;2023-04-01T19:16:46;98684.19;;;7.26;91.30
73338;BME280;61575;49.908;35.556;2023-04-01T19:30:32;98676.50;;;7.31;90.53
73338;BME280;61575;49.908;35.556;2023-04-01T19:37:18;98661.47;;;7.22;90.73
73338;BME280;61575;49.908;35.556;2023-04-01T19:43:47;98682.81;;;7.22;90.60
73338;BME280;61575;49.908;35.556;2023-04-01T19:50:03;98680.16;;;7.22;90.27
73338;BME280;61575;49.908;35.556;2023-04-01T19:56:22;98681.16;;;7.21;89.93
73338;BME280;61575;49.908;35.556;2023-04-01T19:59:37;98688.53;;;7.27;89.70
73338;BME280;61575;49.908;35.556;2023-04-01T20:06:31;98688.34;;;7.28;88.79
73338;BME280;61575;49.908;35.556;2023-04-01T20:16:00;98697.19;;;7.29;88.30
73338;BME280;61575;49.908;35.556;2023-04-01T20:19:04;98700.88;;;7.28;87.99
73338;BME280;61575;49.908;35.556;2023-04-01T20:22:33;98695.19;;;7.31;87.75
73338;BME280;61575;49.908;35.556;2023-04-01T20:25:46;98691.50;;;7.32;87.61
73338;BME280;61575;49.908;35.556;2023-04-01T20:29:55;98691.50;;;7.32;87.37
73338;BME280;61575;49.908;35.556;2023-04-01T20:35:46;98692.84;;;7.28;86.94
73338;BME280;61575;49.908;35.556;2023-04-01T20:39:25;98684.69;;;7.29;86.64
73338;BME280;61575;49.908;35.556;2023-04-01T20:46:20;98696.88;;;7.24;86.43
73338;BME280;61575;49.908;35.556;2023-04-01T20:49:45;98690.69;;;7.23;86.41
73338;BME280;61575;49.908;35.556;2023-04-01T20:53:28;98689.50;;;7.18;86.32
73338;BME280;61575;49.908;35.556;2023-04-01T22:15:20;98677.16;;;6.84;85.36
73338;BME280;61575;49.908;35.556;2023-04-01T22:18:34;98669.00;;;6.86;85.34
73338;BME280;61575;49.908;35.556;2023-04-01T22:25:16;98669.66;;;6.88;85.30
73338;BME280;61575;49.908;35.556;2023-04-01T22:28:28;98666.66;;;6.83;85.69
73338;BME280;61575;49.908;35.556;2023-04-01T22:31:40;98669.50;;;6.81;85.68
73338;BME280;61575;49.908;35.556;2023-04-01T22:35:01;98667.66;;;6.74;85.87
73338;BME280;61575;49.908;35.556;2023-04-01T22:48:15;98666.31;;;6.69;85.83
73338;BME280;61575;49.908;35.556;2023-04-01T22:51:47;98667.16;;;6.70;85.94
73338;BME280;61575;49.908;35.556;2023-04-01T22:55:03;98670.50;;;6.72;85.72
73338;BME280;61575;49.908;35.556;2023-04-01T22:58:13;98658.31;;;6.69;85.81
73338;BME280;61575;49.908;35.556;2023-04-01T23:01:22;98666.31;;;6.69;85.67
73338;BME280;61575;49.908;35.556;2023-04-01T23:04:32;98667.50;;;6.67;85.76
73338;BME280;61575;49.908;35.556;2023-04-01T23:11:10;98667.66;;;6.57;86.18
73338;BME280;61575;49.908;35.556;2023-04-01T23:21:06;98655.81;;;6.52;86.35
73338;BME280;61575;49.908;35.556;2023-04-01T23:24:19;98655.81;;;6.52;86.33
73338;BME280;61575;49.908;35.556;2023-04-01T23:27:34;98661.13;;;6.44;86.69
73338;BME280;61575;49.908;35.556;2023-04-01T23:33:44;98650.13;;;6.38;86.72
73338;BME280;61575;49.908;35.556;2023-04-01T23:36:48;98645.13;;;6.35;86.88
73338;BME280;61575;49.908;35.556;2023-04-01T23:39:54;98643.09;;;6.29;86.98
73338;BME280;61575;49.908;35.556;2023-04-01T23:42:57;98639.78;;;6.27;87.08
73338;BME280;61575;49.908;35.556;2023-04-01T23:46:03;98645.44;;;6.32;86.95
73338;BME280;61575;49.908;35.556;2023-04-01T23:49:14;98642.44;;;6.27;86.93
73338;BME280;61575;49.908;35.556;2023-04-01T23:52:23;98638.75;;;6.20;87.15
73338;BME280;61575;49.908;35.556;2023-04-01T23:55:31;98639.44;;;6.22;86.79
